sensor_id;sensor_type;location;lat;lon;timestamp;temperature;humidity
38237;DHT22;50101;49.438;11.098;2023-06-10T00:00:12;21.90;60.20
38237;DHT22;50101;49.438;11.098;2023-06-10T00:02:41;21.90;60.30
38237;DHT22;50101;49.438;11.098;2023-06-10T00:05:09;21.90;60.30
38237;DHT22;50101;49.438;11.098;2023-06-10T00:07:36;21.90;60.30
38237;DHT22;50101;49.438;11.098;2023-06-10T00:10:05;21.90;60.20
38237;DHT22;50101;49.438;11.098;2023-06-10T00:12:32;21.90;60.20
38237;DHT22;50101;49.438;11.098;2023-06-10T00:15:05;21.90;60.20
38237;DHT22;50101;49.438;11.098;2023-06-10T00:17:32;21.90;60.10
38237;DHT22;50101;49.438;11.098;2023-06-10T00:19:59;21.90;60.20
38237;DHT22;50101;49.438;11.098;2023-06-10T00:22:26;22.00;60.20
38237;DHT22;50101;49.438;11.098;2023-06-10T00:24:55;22.00;60.10
38237;DHT22;50101;49.438;11.098;2023-06-10T00:27:25;21.90;60.10
38237;DHT22;50101;49.438;11.098;2023-06-10T00:29:57;21.90;60.20
38237;DHT22;50101;49.438;11.098;2023-06-10T00:32:24;22.00;60.10
38237;DHT22;50101;49.438;11.098;2023-06-10T00:34:51;22.00;60.20
38237;DHT22;50101;49.438;11.098;2023-06-10T00:37:18;22.00;60.30
38237;DHT22;50101;49.438;11.098;2023-06-10T00:39:45;21.90;60.00
38237;DHT22;50101;49.438;11.098;2023-06-10T00:42:11;21.90;60.20
38237;DHT22;50101;49.438;11.098;2023-06-10T00:44:38;21.90;60.00
38237;DHT22;50101;49.438;11.098;2023-06-10T00:47:05;21.90;60.10
38237;DHT22;50101;49.438;11.098;2023-06-10T00:49:33;21.90;60.10
38237;DHT22;50101;49.438;11.098;2023-06-10T00:52:01;21.90;60.20
38237;DHT22;50101;49.438;11.098;2023-06-10T00:54:28;21.90;60.20
38237;DHT22;50101;49.438;11.098;2023-06-10T00:56:55;21.90;60.40
38237;DHT22;50101;49.438;11.098;2023-06-10T00:59:22;22.00;60.30
38237;DHT22;50101;49.438;11.098;2023-06-10T01:01:49;21.90;60.30
38237;DHT22;50101;49.438;11.098;2023-06-10T01:04:16;21.90;60.30
38237;DHT22;50101;49.438;11.098;2023-06-10T01:09:35;21.90;60.40
38237;DHT22;50101;49.438;11.098;2023-06-10T01:14:58;21.90;60.40
38237;DHT22;50101;49.438;11.098;2023-06-10T01:17:25;21.90;60.30
38237;DHT22;50101;49.438;11.098;2023-06-10T01:19:54;21.90;60.30
38237;DHT22;50101;49.438;11.098;2023-06-10T01:22:25;21.90;60.20
38237;DHT22;50101;49.438;11.098;2023-06-10T01:24:55;21.80;60.10
38237;DHT22;50101;49.438;11.098;2023-06-10T01:27:32;21.80;60.20
38237;DHT22;50101;49.438;11.098;2023-06-10T01:30:05;21.90;60.20
38237;DHT22;50101;49.438;11.098;2023-06-10T01:32:38;21.90;60.20
38237;DHT22;50101;49.438;11.098;2023-06-10T01:35:08;21.80;60.10
38237;DHT22;50101;49.438;11.098;2023-06-10T01:37:36;21.80;60.10
38237;DHT22;50101;49.438;11.098;2023-06-10T01:40:05;21.80;60.10
38237;DHT22;50101;49.438;11.098;2023-06-10T01:42:33;21.90;60.20
38237;DHT22;50101;49.438;11.098;2023-06-10T01:44:59;21.80;60.10
38237;DHT22;50101;49.438;11.098;2023-06-10T01:47:26;21.80;60.10
38237;DHT22;50101;49.438;11.098;2023-06-10T01:49:53;21.80;60.10
38237;DHT22;50101;49.438;11.098;2023-06-10T01:52:20;21.80;60.10
38237;DHT22;50101;49.438;11.098;2023-06-10T01:54:47;21.80;60.10
38237;DHT22;50101;49.438;11.098;2023-06-10T01:57:13;21.80;60.10
38237;DHT22;50101;49.438;11.098;2023-06-10T01:59:40;21.80;60.10
38237;DHT22;50101;49.438;11.098;2023-06-10T02:02:08;21.80;60.00
38237;DHT22;50101;49.438;11.098;2023-06-10T02:04:35;21.80;60.10
38237;DHT22;50101;49.438;11.098;2023-06-10T02:07:02;21.80;60.10
38237;DHT22;50101;49.438;11.098;2023-06-10T02:09:31;21.80;60.10
38237;DHT22;50101;49.438;11.098;2023-06-10T02:11:58;21.80;60.00
38237;DHT22;50101;49.438;11.098;2023-06-10T02:14:24;21.80;60.00
38237;DHT22;50101;49.438;11.098;2023-06-10T02:16:51;21.80;60.00
38237;DHT22;50101;49.438;11.098;2023-06-10T02:19:18;21.80;60.00
38237;DHT22;50101;49.438;11.098;2023-06-10T02:21:45;21.80;60.00
38237;DHT22;50101;49.438;11.098;2023-06-10T02:24:12;21.80;60.00
38237;DHT22;50101;49.438;11.098;2023-06-10T02:26:39;21.80;59.90
38237;DHT22;50101;49.438;11.098;2023-06-10T02:29:06;21.80;59.90
38237;DHT22;50101;49.438;11.098;2023-06-10T02:31:33;21.80;59.90
38237;DHT22;50101;49.438;11.098;2023-06-10T02:34:02;21.80;59.90
38237;DHT22;50101;49.438;11.098;2023-06-10T02:36:29;21.80;59.90
38237;DHT22;50101;49.438;11.098;2023-06-10T02:38:56;21.80;60.00
38237;DHT22;50101;49.438;11.098;2023-06-10T02:41:23;21.80;59.90
38237;DHT22;50101;49.438;11.098;2023-06-10T02:43:51;21.80;59.90
38237;DHT22;50101;49.438;11.098;2023-06-10T02:46:18;21.80;59.90
38237;DHT22;50101;49.438;11.098;2023-06-10T02:48:45;21.80;59.90
38237;DHT22;50101;49.438;11.098;2023-06-10T02:51:12;21.80;59.80
38237;DHT22;50101;49.438;11.098;2023-06-10T02:53:39;21.80;59.90
38237;DHT22;50101;49.438;11.098;2023-06-10T02:56:05;21.80;59.90
38237;DHT22;50101;49.438;11.098;2023-06-10T02:58:32;21.70;59.80
38237;DHT22;50101;49.438;11.098;2023-06-10T03:00:59;21.80;59.80
38237;DHT22;50101;49.438;11.098;2023-06-10T03:03:26;21.70;59.80
38237;DHT22;50101;49.438;11.098;2023-06-10T03:05:55;21.70;59.80
38237;DHT22;50101;49.438;11.098;2023-06-10T03:08:23;21.80;59.80
38237;DHT22;50101;49.438;11.098;2023-06-10T03:10:49;21.70;59.70
38237;DHT22;50101;49.438;11.098;2023-06-10T03:13:16;21.70;59.70
38237;DHT22;50101;49.438;11.098;2023-06-10T03:15:43;21.80;59.80
38237;DHT22;50101;49.438;11.098;2023-06-10T03:18:11;21.80;59.80
38237;DHT22;50101;49.438;11.098;2023-06-10T03:20:37;21.80;59.80
38237;DHT22;50101;49.438;11.098;2023-06-10T03:23:06;21.70;59.70
38237;DHT22;50101;49.438;11.098;2023-06-10T03:25:33;21.70;59.70
38237;DHT22;50101;49.438;11.098;2023-06-10T03:27:59;21.70;59.70
38237;DHT22;50101;49.438;11.098;2023-06-10T03:30:27;21.70;59.70
38237;DHT22;50101;49.438;11.098;2023-06-10T03:32:54;21.70;59.70
38237;DHT22;50101;49.438;11.098;2023-06-10T03:35:21;21.70;59.70
38237;DHT22;50101;49.438;11.098;2023-06-10T03:37:48;21.70;59.70
38237;DHT22;50101;49.438;11.098;2023-06-10T03:40:15;21.70;59.70
38237;DHT22;50101;49.438;11.098;2023-06-10T03:42:42;21.70;59.60
38237;DHT22;50101;49.438;11.098;2023-06-10T03:45:10;21.70;59.60
38237;DHT22;50101;49.438;11.098;2023-06-10T03:47:38;21.70;59.60
38237;DHT22;50101;49.438;11.098;2023-06-10T03:50:07;21.70;59.60
38237;DHT22;50101;49.438;11.098;2023-06-10T03:52:38;21.70;59.60
38237;DHT22;50101;49.438;11.098;2023-06-10T03:55:05;21.70;59.60
38237;DHT22;50101;49.438;11.098;2023-06-10T03:57:32;21.70;59.60
38237;DHT22;50101;49.438;11.098;2023-06-10T03:59:59;21.70;59.60
38237;DHT22;50101;49.438;11.098;2023-06-10T04:02:25;21.70;59.60
38237;DHT22;50101;49.438;11.098;2023-06-10T04:04:52;21.70;59.60
38237;DHT22;50101;49.438;11.098;2023-06-10T04:07:19;21.70;59.50
38237;DHT22;50101;49.438;11.098;2023-06-10T04:09:46;21.70;59.50
38237;DHT22;50101;49.438;11.098;2023-06-10T04:12:13;21.70;59.50
38237;DHT22;50101;49.438;11.098;2023-06-10T04:14:41;21.70;59.50
38237;DHT22;50101;49.438;11.098;2023-06-10T04:17:08;21.70;59.50
38237;DHT22;50101;49.438;11.098;2023-06-10T04:19:35;21.70;59.50
38237;DHT22;50101;49.438;11.098;2023-06-10T04:22:02;21.70;59.50
38237;DHT22;50101;49.438;11.098;2023-06-10T04:24:30;21.70;59.50
38237;DHT22;50101;49.438;11.098;2023-06-10T04:26:57;21.70;59.50
38237;DHT22;50101;49.438;11.098;2023-06-10T04:29:24;21.70;59.50
38237;DHT22;50101;49.438;11.098;2023-06-10T04:31:50;21.70;59.50
38237;DHT22;50101;49.438;11.098;2023-06-10T04:34:17;21.70;59.50
38237;DHT22;50101;49.438;11.098;2023-06-10T04:36:44;21.70;59.60
38237;DHT22;50101;49.438;11.098;2023-06-10T04:39:11;21.70;59.50
38237;DHT22;50101;49.438;11.098;2023-06-10T04:41:37;21.70;59.60
38237;DHT22;50101;49.438;11.098;2023-06-10T04:44:04;21.70;59.60
38237;DHT22;50101;49.438;11.098;2023-06-10T04:46:31;21.70;59.60
38237;DHT22;50101;49.438;11.098;2023-06-10T04:48:58;21.70;59.60
38237;DHT22;50101;49.438;11.098;2023-06-10T04:51:25;21.70;59.60
38237;DHT22;50101;49.438;11.098;2023-06-10T04:53:52;21.70;59.60
38237;DHT22;50101;49.438;11.098;2023-06-10T04:56:19;21.70;59.60
38237;DHT22;50101;49.438;11.098;2023-06-10T04:58:46;21.70;59.60
38237;DHT22;50101;49.438;11.098;2023-06-10T05:01:13;21.70;59.60
38237;DHT22;50101;49.438;11.098;2023-06-10T05:03:40;21.70;59.60
38237;DHT22;50101;49.438;11.098;2023-06-10T05:06:07;21.80;59.70
38237;DHT22;50101;49.438;11.098;2023-06-10T05:08:34;21.70;59.70
38237;DHT22;50101;49.438;11.098;2023-06-10T05:11:00;21.70;59.70
38237;DHT22;50101;49.438;11.098;2023-06-10T05:13:27;21.80;59.80
38237;DHT22;50101;49.438;11.098;2023-06-10T05:15:54;21.80;59.80
38237;DHT22;50101;49.438;11.098;2023-06-10T05:18:20;21.80;59.90
38237;DHT22;50101;49.438;11.098;2023-06-10T05:20:47;21.70;59.80
38237;DHT22;50101;49.438;11.098;2023-06-10T05:23:15;21.70;59.80
38237;DHT22;50101;49.438;11.098;2023-06-10T05:25:42;21.80;59.90
38237;DHT22;50101;49.438;11.098;2023-06-10T05:28:09;21.80;59.90
38237;DHT22;50101;49.438;11.098;2023-06-10T05:30:41;21.80;59.90
38237;DHT22;50101;49.438;11.098;2023-06-10T05:33:07;21.80;59.90
38237;DHT22;50101;49.438;11.098;2023-06-10T05:35:34;21.80;59.90
38237;DHT22;50101;49.438;11.098;2023-06-10T05:38:01;21.80;59.90
38237;DHT22;50101;49.438;11.098;2023-06-10T05:40:29;21.80;59.90
38237;DHT22;50101;49.438;11.098;2023-06-10T05:42:56;21.80;59.90
38237;DHT22;50101;49.438;11.098;2023-06-10T05:45:23;21.80;59.90
38237;DHT22;50101;49.438;11.098;2023-06-10T05:47:49;21.80;59.90
38237;DHT22;50101;49.438;11.098;2023-06-10T05:50:17;21.80;59.90
38237;DHT22;50101;49.438;11.098;2023-06-10T05:52:44;21.80;59.90
38237;DHT22;50101;49.438;11.098;2023-06-10T05:55:10;21.80;59.90
38237;DHT22;50101;49.438;11.098;2023-06-10T05:57:38;21.80;60.70
38237;DHT22;50101;49.438;11.098;2023-06-10T06:00:05;21.80;59.90
38237;DHT22;50101;49.438;11.098;2023-06-10T06:02:32;21.80;60.00
38237;DHT22;50101;49.438;11.098;2023-06-10T06:04:58;21.80;60.00
38237;DHT22;50101;49.438;11.098;2023-06-10T06:07:25;21.80;60.00
38237;DHT22;50101;49.438;11.098;2023-06-10T06:09:52;21.80;60.70
38237;DHT22;50101;49.438;11.098;2023-06-10T06:12:19;21.90;60.10
38237;DHT22;50101;49.438;11.098;2023-06-10T06:14:46;21.80;60.00
38237;DHT22;50101;49.438;11.098;2023-06-10T06:17:12;21.90;60.10
38237;DHT22;50101;49.438;11.098;2023-06-10T06:19:39;21.90;60.20
38237;DHT22;50101;49.438;11.098;2023-06-10T06:22:06;21.90;60.10
38237;DHT22;50101;49.438;11.098;2023-06-10T06:24:32;21.80;60.00
38237;DHT22;50101;49.438;11.098;2023-06-10T06:26:59;21.80;60.00
38237;DHT22;50101;49.438;11.098;2023-06-10T06:29:26;21.90;60.20
38237;DHT22;50101;49.438;11.098;2023-06-10T06:31:53;21.90;60.10
38237;DHT22;50101;49.438;11.098;2023-06-10T06:34:20;21.90;60.20
38237;DHT22;50101;49.438;11.098;2023-06-10T06:36:46;21.90;60.20
38237;DHT22;50101;49.438;11.098;2023-06-10T06:39:13;21.90;60.20
38237;DHT22;50101;49.438;11.098;2023-06-10T06:41:40;21.90;60.20
38237;DHT22;50101;49.438;11.098;2023-06-10T06:44:06;21.90;60.10
38237;DHT22;50101;49.438;11.098;2023-06-10T06:46:33;21.90;60.20
38237;DHT22;50101;49.438;11.098;2023-06-10T06:49:00;21.90;60.20
38237;DHT22;50101;49.438;11.098;2023-06-10T06:51:27;21.90;60.20
38237;DHT22;50101;49.438;11.098;2023-06-10T06:53:53;21.90;60.20
38237;DHT22;50101;49.438;11.098;2023-06-10T06:56:23;21.90;60.20
38237;DHT22;50101;49.438;11.098;2023-06-10T06:58:50;21.90;60.20
38237;DHT22;50101;49.438;11.098;2023-06-10T07:01:16;21.90;60.20
38237;DHT22;50101;49.438;11.098;2023-06-10T07:03:43;22.00;60.30
38237;DHT22;50101;49.438;11.098;2023-06-10T07:06:10;22.00;60.30
38237;DHT22;50101;49.438;11.098;2023-06-10T07:08:37;22.00;60.30
38237;DHT22;50101;49.438;11.098;2023-06-10T07:11:03;21.90;60.20
38237;DHT22;50101;49.438;11.098;2023-06-10T07:13:30;21.90;60.20
38237;DHT22;50101;49.438;11.098;2023-06-10T07:15:57;21.90;60.20
38237;DHT22;50101;49.438;11.098;2023-06-10T07:18:24;22.00;60.30
38237;DHT22;50101;49.438;11.098;2023-06-10T07:20:50;21.90;60.20
38237;DHT22;50101;49.438;11.098;2023-06-10T07:23:17;22.00;60.30
38237;DHT22;50101;49.438;11.098;2023-06-10T07:25:44;22.00;60.30
38237;DHT22;50101;49.438;11.098;2023-06-10T07:28:10;22.00;60.30
38237;DHT22;50101;49.438;11.098;2023-06-10T07:30:37;22.00;60.30
38237;DHT22;50101;49.438;11.098;2023-06-10T07:33:04;22.00;60.20
38237;DHT22;50101;49.438;11.098;2023-06-10T07:35:34;22.00;60.30
38237;DHT22;50101;49.438;11.098;2023-06-10T07:38:01;22.00;60.30
38237;DHT22;50101;49.438;11.098;2023-06-10T07:40:27;22.00;60.20
38237;DHT22;50101;49.438;11.098;2023-06-10T07:42:55;22.00;60.20
38237;DHT22;50101;49.438;11.098;2023-06-10T07:45:21;22.00;60.20
38237;DHT22;50101;49.438;11.098;2023-06-10T07:47:48;22.00;60.30
38237;DHT22;50101;49.438;11.098;2023-06-10T07:50:15;22.00;60.30
38237;DHT22;50101;49.438;11.098;2023-06-10T07:52:42;22.00;60.30
38237;DHT22;50101;49.438;11.098;2023-06-10T07:55:08;22.00;60.30
38237;DHT22;50101;49.438;11.098;2023-06-10T07:57:35;22.00;60.30
38237;DHT22;50101;49.438;11.098;2023-06-10T08:00:05;22.10;60.40
38237;DHT22;50101;49.438;11.098;2023-06-10T08:02:32;22.00;60.20
38237;DHT22;50101;49.438;11.098;2023-06-10T08:04:59;22.00;60.30
38237;DHT22;50101;49.438;11.098;2023-06-10T08:07:26;22.00;61.00
38237;DHT22;50101;49.438;11.098;2023-06-10T08:09:52;22.10;60.40
38237;DHT22;50101;49.438;11.098;2023-06-10T08:12:19;22.00;60.20
38237;DHT22;50101;49.438;11.098;2023-06-10T08:14:46;22.10;60.40
38237;DHT22;50101;49.438;11.098;2023-06-10T08:17:13;22.00;60.30
38237;DHT22;50101;49.438;11.098;2023-06-10T08:19:40;22.10;60.40
38237;DHT22;50101;49.438;11.098;2023-06-10T08:22:07;22.10;60.30
38237;DHT22;50101;49.438;11.098;2023-06-10T08:24:33;22.10;60.30
38237;DHT22;50101;49.438;11.098;2023-06-10T08:27:00;22.10;60.20
38237;DHT22;50101;49.438;11.098;2023-06-10T08:29:27;22.10;60.20
38237;DHT22;50101;49.438;11.098;2023-06-10T08:31:54;22.10;60.20
38237;DHT22;50101;49.438;11.098;2023-06-10T08:34:20;22.10;60.20
38237;DHT22;50101;49.438;11.098;2023-06-10T08:36:47;22.10;60.20
38237;DHT22;50101;49.438;11.098;2023-06-10T08:39:19;22.10;60.20
38237;DHT22;50101;49.438;11.098;2023-06-10T08:41:59;22.10;60.20
38237;DHT22;50101;49.438;11.098;2023-06-10T08:44:30;22.20;60.30
38237;DHT22;50101;49.438;11.098;2023-06-10T08:47:13;22.10;60.20
38237;DHT22;50101;49.438;11.098;2023-06-10T08:49:44;22.20;60.30
38237;DHT22;50101;49.438;11.098;2023-06-10T08:52:15;22.20;60.30
38237;DHT22;50101;49.438;11.098;2023-06-10T08:54:54;22.20;60.30
38237;DHT22;50101;49.438;11.098;2023-06-10T08:57:23;22.20;60.30
38237;DHT22;50101;49.438;11.098;2023-06-10T08:59:50;22.20;60.30
38237;DHT22;50101;49.438;11.098;2023-06-10T09:02:19;22.20;60.30
38237;DHT22;50101;49.438;11.098;2023-06-10T09:04:47;22.20;60.30
38237;DHT22;50101;49.438;11.098;2023-06-10T09:07:16;22.20;60.30
38237;DHT22;50101;49.438;11.098;2023-06-10T09:09:44;22.20;60.20
38237;DHT22;50101;49.438;11.098;2023-06-10T09:12:13;22.20;60.40
38237;DHT22;50101;49.438;11.098;2023-06-10T09:14:40;22.20;60.50
38237;DHT22;50101;49.438;11.098;2023-06-10T09:17:07;22.30;60.70
38237;DHT22;50101;49.438;11.098;2023-06-10T09:19:35;22.20;60.70
38237;DHT22;50101;49.438;11.098;2023-06-10T09:22:02;22.30;60.90
38237;DHT22;50101;49.438;11.098;2023-06-10T09:24:29;22.20;60.80
38237;DHT22;50101;49.438;11.098;2023-06-10T09:27:03;22.20;60.70
38237;DHT22;50101;49.438;11.098;2023-06-10T09:29:30;22.30;60.90
38237;DHT22;50101;49.438;11.098;2023-06-10T09:31:57;22.30;61.00
38237;DHT22;50101;49.438;11.098;2023-06-10T09:34:25;22.30;61.00
38237;DHT22;50101;49.438;11.098;2023-06-10T09:36:53;22.30;61.10
38237;DHT22;50101;49.438;11.098;2023-06-10T09:39:20;22.30;61.10
38237;DHT22;50101;49.438;11.098;2023-06-10T09:41:47;22.40;61.20
38237;DHT22;50101;49.438;11.098;2023-06-10T09:44:16;22.40;61.20
38237;DHT22;50101;49.438;11.098;2023-06-10T09:46:45;22.40;61.20
38237;DHT22;50101;49.438;11.098;2023-06-10T09:49:12;22.40;61.20
38237;DHT22;50101;49.438;11.098;2023-06-10T09:51:59;22.40;61.20
38237;DHT22;50101;49.438;11.098;2023-06-10T09:54:31;22.40;61.20
38237;DHT22;50101;49.438;11.098;2023-06-10T09:56:58;22.40;61.20
38237;DHT22;50101;49.438;11.098;2023-06-10T09:59:30;22.40;61.20
38237;DHT22;50101;49.438;11.098;2023-06-10T10:02:01;22.40;61.20
38237;DHT22;50101;49.438;11.098;2023-06-10T10:04:27;22.40;61.20
38237;DHT22;50101;49.438;11.098;2023-06-10T10:06:55;22.40;61.40
38237;DHT22;50101;49.438;11.098;2023-06-10T10:09:22;22.40;61.60
38237;DHT22;50101;49.438;11.098;2023-06-10T10:11:49;22.50;61.70
38237;DHT22;50101;49.438;11.098;2023-06-10T10:14:17;22.50;61.40
38237;DHT22;50101;49.438;11.098;2023-06-10T10:16:45;22.40;61.20
38237;DHT22;50101;49.438;11.098;2023-06-10T10:19:20;22.40;61.40
38237;DHT22;50101;49.438;11.098;2023-06-10T10:21:53;22.40;61.50
38237;DHT22;50101;49.438;11.098;2023-06-10T10:24:30;22.40;61.60
38237;DHT22;50101;49.438;11.098;2023-06-10T10:26:59;22.50;61.90
38237;DHT22;50101;49.438;11.098;2023-06-10T10:29:38;22.40;61.60
38237;DHT22;50101;49.438;11.098;2023-06-10T10:32:07;22.50;62.10
38237;DHT22;50101;49.438;11.098;2023-06-10T10:37:07;22.50;61.50
38237;DHT22;50101;49.438;11.098;2023-06-10T10:39:34;22.50;61.90
38237;DHT22;50101;49.438;11.098;2023-06-10T10:42:02;22.50;62.00
38237;DHT22;50101;49.438;11.098;2023-06-10T10:44:31;22.50;61.90
38237;DHT22;50101;49.438;11.098;2023-06-10T10:47:02;22.40;61.90
38237;DHT22;50101;49.438;11.098;2023-06-10T10:49:32;22.40;61.70
38237;DHT22;50101;49.438;11.098;2023-06-10T10:52:01;22.40;61.90
38237;DHT22;50101;49.438;11.098;2023-06-10T10:54:36;22.50;62.10
38237;DHT22;50101;49.438;11.098;2023-06-10T10:57:21;22.50;62.20
38237;DHT22;50101;49.438;11.098;2023-06-10T11:02:19;22.50;62.00
38237;DHT22;50101;49.438;11.098;2023-06-10T11:04:58;22.50;62.00
38237;DHT22;50101;49.438;11.098;2023-06-10T11:07:28;22.50;62.10
38237;DHT22;50101;49.438;11.098;2023-06-10T11:15:07;22.50;62.30
38237;DHT22;50101;49.438;11.098;2023-06-10T11:17:35;22.50;62.30
38237;DHT22;50101;49.438;11.098;2023-06-10T11:20:02;22.50;62.20
38237;DHT22;50101;49.438;11.098;2023-06-10T11:22:29;22.50;62.20
38237;DHT22;50101;49.438;11.098;2023-06-10T11:24:56;22.50;62.20
38237;DHT22;50101;49.438;11.098;2023-06-10T11:27:25;22.50;62.20
38237;DHT22;50101;49.438;11.098;2023-06-10T11:32:29;22.60;62.40
38237;DHT22;50101;49.438;11.098;2023-06-10T11:34:57;22.50;61.30
38237;DHT22;50101;49.438;11.098;2023-06-10T11:37:24;22.50;61.40
38237;DHT22;50101;49.438;11.098;2023-06-10T11:39:55;22.50;61.50
38237;DHT22;50101;49.438;11.098;2023-06-10T11:42:25;22.40;61.20
38237;DHT22;50101;49.438;11.098;2023-06-10T11:44:53;22.40;61.20
38237;DHT22;50101;49.438;11.098;2023-06-10T11:47:21;22.40;61.20
38237;DHT22;50101;49.438;11.098;2023-06-10T11:49:57;22.30;61.10
38237;DHT22;50101;49.438;11.098;2023-06-10T11:52:31;22.40;61.20
38237;DHT22;50101;49.438;11.098;2023-06-10T11:55:00;22.30;61.10
38237;DHT22;50101;49.438;11.098;2023-06-10T11:57:26;22.30;61.10
38237;DHT22;50101;49.438;11.098;2023-06-10T11:59:53;22.30;61.10
38237;DHT22;50101;49.438;11.098;2023-06-10T12:02:20;22.30;61.60
38237;DHT22;50101;49.438;11.098;2023-06-10T12:04:48;22.40;61.50
38237;DHT22;50101;49.438;11.098;2023-06-10T12:07:19;22.40;61.20
38237;DHT22;50101;49.438;11.098;2023-06-10T12:09:46;22.40;61.20
38237;DHT22;50101;49.438;11.098;2023-06-10T12:12:13;22.40;61.20
38237;DHT22;50101;49.438;11.098;2023-06-10T12:14:57;22.40;61.20
38237;DHT22;50101;49.438;11.098;2023-06-10T12:20:01;22.40;61.20
38237;DHT22;50101;49.438;11.098;2023-06-10T12:22:41;22.40;61.20
38237;DHT22;50101;49.438;11.098;2023-06-10T12:25:08;22.40;61.20
38237;DHT22;50101;49.438;11.098;2023-06-10T12:27:37;22.40;61.20
38237;DHT22;50101;49.438;11.098;2023-06-10T12:30:05;22.40;61.20
38237;DHT22;50101;49.438;11.098;2023-06-10T12:32:46;22.30;61.80
38237;DHT22;50101;49.438;11.098;2023-06-10T12:35:22;22.30;61.10
38237;DHT22;50101;49.438;11.098;2023-06-10T12:37:59;22.30;61.10
38237;DHT22;50101;49.438;11.098;2023-06-10T12:40:29;22.30;61.10
38237;DHT22;50101;49.438;11.098;2023-06-10T12:42:56;22.30;61.10
38237;DHT22;50101;49.438;11.098;2023-06-10T12:45:30;22.30;61.10
38237;DHT22;50101;49.438;11.098;2023-06-10T12:48:10;22.30;61.10
38237;DHT22;50101;49.438;11.098;2023-06-10T12:50:41;22.30;61.10
38237;DHT22;50101;49.438;11.098;2023-06-10T12:53:09;22.30;61.10
38237;DHT22;50101;49.438;11.098;2023-06-10T12:55:36;22.30;61.10
38237;DHT22;50101;49.438;11.098;2023-06-10T12:58:02;22.30;61.10
38237;DHT22;50101;49.438;11.098;2023-06-10T13:00:30;22.30;61.10
38237;DHT22;50101;49.438;11.098;2023-06-10T13:02:59;22.30;61.10
38237;DHT22;50101;49.438;11.098;2023-06-10T13:05:27;22.30;61.10
38237;DHT22;50101;49.438;11.098;2023-06-10T13:07:54;22.30;61.10
38237;DHT22;50101;49.438;11.098;2023-06-10T13:10:21;22.30;61.10
38237;DHT22;50101;49.438;11.098;2023-06-10T13:12:52;22.30;61.10
38237;DHT22;50101;49.438;11.098;2023-06-10T13:15:18;22.30;61.10
38237;DHT22;50101;49.438;11.098;2023-06-10T13:17:46;22.30;61.10
38237;DHT22;50101;49.438;11.098;2023-06-10T13:20:18;22.40;61.20
38237;DHT22;50101;49.438;11.098;2023-06-10T13:22:45;22.40;61.20
38237;DHT22;50101;49.438;11.098;2023-06-10T13:25:12;22.50;61.30
38237;DHT22;50101;49.438;11.098;2023-06-10T13:27:39;22.50;61.30
38237;DHT22;50101;49.438;11.098;2023-06-10T13:30:09;22.40;61.20
38237;DHT22;50101;49.438;11.098;2023-06-10T13:32:36;22.50;61.30
38237;DHT22;50101;49.438;11.098;2023-06-10T13:35:04;22.40;61.20
38237;DHT22;50101;49.438;11.098;2023-06-10T13:37:31;22.40;61.20
38237;DHT22;50101;49.438;11.098;2023-06-10T13:40:00;22.40;61.20
38237;DHT22;50101;49.438;11.098;2023-06-10T13:42:27;22.40;61.20
38237;DHT22;50101;49.438;11.098;2023-06-10T13:44:55;22.40;61.20
38237;DHT22;50101;49.438;11.098;2023-06-10T13:47:23;22.50;61.30
38237;DHT22;50101;49.438;11.098;2023-06-10T13:49:51;22.50;61.30
38237;DHT22;50101;49.438;11.098;2023-06-10T13:52:17;22.50;61.20
38237;DHT22;50101;49.438;11.098;2023-06-10T13:54:44;22.50;61.10
38237;DHT22;50101;49.438;11.098;2023-06-10T13:57:11;22.50;61.30
38237;DHT22;50101;49.438;11.098;2023-06-10T13:59:38;22.50;61.20
38237;DHT22;50101;49.438;11.098;2023-06-10T14:02:04;22.50;61.30
38237;DHT22;50101;49.438;11.098;2023-06-10T14:04:31;22.50;61.30
38237;DHT22;50101;49.438;11.098;2023-06-10T14:06:59;22.40;61.20
38237;DHT22;50101;49.438;11.098;2023-06-10T14:09:26;22.40;61.20
38237;DHT22;50101;49.438;11.098;2023-06-10T14:11:52;22.40;61.20
38237;DHT22;50101;49.438;11.098;2023-06-10T14:14:19;22.40;61.20
38237;DHT22;50101;49.438;11.098;2023-06-10T14:16:46;22.40;61.20
38237;DHT22;50101;49.438;11.098;2023-06-10T14:19:13;22.40;61.20
38237;DHT22;50101;49.438;11.098;2023-06-10T14:21:40;22.40;61.20
38237;DHT22;50101;49.438;11.098;2023-06-10T14:24:07;22.40;61.20
38237;DHT22;50101;49.438;11.098;2023-06-10T14:26:34;22.40;61.20
38237;DHT22;50101;49.438;11.098;2023-06-10T14:29:01;22.40;61.20
38237;DHT22;50101;49.438;11.098;2023-06-10T14:31:29;22.50;61.30
38237;DHT22;50101;49.438;11.098;2023-06-10T14:33:55;22.50;61.30
38237;DHT22;50101;49.438;11.098;2023-06-10T14:36:22;22.50;61.30
38237;DHT22;50101;49.438;11.098;2023-06-10T14:38:49;22.50;61.30
38237;DHT22;50101;49.438;11.098;2023-06-10T14:41:16;22.50;61.30
38237;DHT22;50101;49.438;11.098;2023-06-10T14:43:43;22.50;61.30
38237;DHT22;50101;49.438;11.098;2023-06-10T14:46:09;22.50;61.30
38237;DHT22;50101;49.438;11.098;2023-06-10T14:48:36;22.50;61.30
38237;DHT22;50101;49.438;11.098;2023-06-10T14:51:03;22.60;61.20
38237;DHT22;50101;49.438;11.098;2023-06-10T14:53:30;22.60;61.20
38237;DHT22;50101;49.438;11.098;2023-06-10T14:55:56;22.60;61.10
38237;DHT22;50101;49.438;11.098;2023-06-10T14:58:23;22.60;61.00
38237;DHT22;50101;49.438;11.098;2023-06-10T15:00:50;22.60;61.00
38237;DHT22;50101;49.438;11.098;2023-06-10T15:03:17;22.60;61.00
38237;DHT22;50101;49.438;11.098;2023-06-10T15:05:44;22.60;61.00
38237;DHT22;50101;49.438;11.098;2023-06-10T15:08:11;22.50;61.10
38237;DHT22;50101;49.438;11.098;2023-06-10T15:10:38;22.50;61.30
38237;DHT22;50101;49.438;11.098;2023-06-10T15:13:04;22.50;61.30
38237;DHT22;50101;49.438;11.098;2023-06-10T15:15:31;22.50;61.30
38237;DHT22;50101;49.438;11.098;2023-06-10T15:17:58;22.50;61.30
38237;DHT22;50101;49.438;11.098;2023-06-10T15:20:25;22.50;61.30
38237;DHT22;50101;49.438;11.098;2023-06-10T15:22:51;22.50;61.30
38237;DHT22;50101;49.438;11.098;2023-06-10T15:25:20;22.40;61.20
38237;DHT22;50101;49.438;11.098;2023-06-10T15:27:57;22.50;61.30
38237;DHT22;50101;49.438;11.098;2023-06-10T15:30:24;22.40;61.20
38237;DHT22;50101;49.438;11.098;2023-06-10T15:32:51;22.50;61.30
38237;DHT22;50101;49.438;11.098;2023-06-10T15:35:18;22.50;61.30
38237;DHT22;50101;49.438;11.098;2023-06-10T15:37:45;22.50;61.20
38237;DHT22;50101;49.438;11.098;2023-06-10T15:40:12;22.50;61.20